Time;durP1;ratioP1;P1;durP2;ratioP2;P2;SDS_P1;SDS_P2;PMS_P1;PMS_P2;Temp;Humidity;BMP_temperature;BMP_pressure;BME280_temperature;BME280_humidity;BME280_pressure;Samples;Min_cycle;Max_cycle;Signal;HPM_P1;HPM_P2
2021/03/19 00:01:28;;;;;;;19.73;14.50;;;;;;;;;;5102195;27;20123;-55
2021/03/19 00:03:53;;;;;;;20.65;14.23;;;;;;;;;;5102886;28;20038;-55
2021/03/19 00:06:19;;;;;;;17.75;13.93;;;;;;;;;;5101079;27;20035;-53
2021/03/19 00:08:44;;;;;;;18.20;13.75;;;;;;;;;;5101106;28;20443;-51
2021/03/19 00:11:10;;;;;;;19.05;14.90;;;;;;;;;;5106227;27;20114;-53
2021/03/19 00:13:35;;;;;;;20.17;14.27;;;;;;;;;;5105902;27;20073;-50
2021/03/19 00:16:01;;;;;;;18.58;13.63;;;;;;;;;;5101563;28;20028;-54
2021/03/19 00:18:26;;;;;;;18.73;14.05;;;;;;;;;;5101229;27;20389;-54
2021/03/19 00:20:52;;;;;;;15.45;12.75;;;;;;;;;;5104298;27;20019;-53
2021/03/19 00:23:18;;;;;;;19.23;14.75;;;;;;;;;;5105149;28;20115;-55
2021/03/19 00:25:44;;;;;;;21.80;15.18;;;;;;;;;;5098638;28;20130;-55
2021/03/19 00:28:14;;;;;;;20.60;14.55;;;;;;;;;;5104344;27;20049;-51
2021/03/19 00:30:44;;;;;;;18.85;14.05;;;;;;;;;;5101678;28;20024;-53
2021/03/19 00:33:11;;;;;;;19.35;14.18;;;;;;;;;;5104464;27;20894;-52
2021/03/19 00:35:36;;;;;;;28.70;16.17;;;;;;;;;;5101158;27;20437;-51
2021/03/19 00:38:03;;;;;;;17.35;14.77;;;;;;;;;;5100453;28;20039;-55
2021/03/19 00:40:29;;;;;;;22.35;15.10;;;;;;;;;;5101414;27;20086;-51
2021/03/19 00:42:55;;;;;;;18.77;15.10;;;;;;;;;;5105027;27;20032;-54
2021/03/19 00:45:22;;;;;;;18.30;14.60;;;;;;;;;;5101492;27;20036;-52
2021/03/19 00:47:50;;;;;;;24.08;15.63;;;;;;;;;;5103291;28;20038;-53
2021/03/19 00:50:17;;;;;;;19.42;15.32;;;;;;;;;;5103736;27;20130;-52
2021/03/19 00:52:43;;;;;;;20.45;15.05;;;;;;;;;;5103714;27;20039;-53
2021/03/19 00:55:11;;;;;;;20.08;15.55;;;;;;;;;;5100539;27;20201;-53
2021/03/19 00:57:36;;;;;;;20.77;15.23;;;;;;;;;;5102038;27;20464;-51
2021/03/19 01:00:05;;;;;;;18.77;14.43;;;;;;;;;;5104215;27;20123;-54
2021/03/19 01:02:30;;;;;;;18.13;14.30;;;;;;;;;;5103184;27;20096;-53
2021/03/19 01:04:56;;;;;;;15.52;13.90;;;;;;;;;;5105312;27;21921;-50
2021/03/19 01:07:22;;;;;;;22.33;14.45;;;;;;;;;;5104762;27;20032;-53
2021/03/19 01:09:47;;;;;;;16.52;12.40;;;;;;;;;;5104290;28;20164;-54
2021/03/19 01:12:13;;;;;;;15.57;12.73;;;;;;;;;;5103378;27;20035;-53
2021/03/19 01:14:39;;;;;;;17.73;13.57;;;;;;;;;;5097705;28;20036;-53
2021/03/19 01:17:04;;;;;;;17.38;12.82;;;;;;;;;;5103482;27;20043;-50
2021/03/19 01:19:29;;;;;;;17.58;13.27;;;;;;;;;;5100301;28;20035;-54
2021/03/19 01:21:55;;;;;;;16.95;14.18;;;;;;;;;;5100939;27;20781;-53
2021/03/19 01:24:20;;;;;;;15.32;13.27;;;;;;;;;;5099764;28;20093;-49
2021/03/19 01:26:46;;;;;;;16.88;14.32;;;;;;;;;;5102458;28;20050;-52
2021/03/19 01:29:11;;;;;;;16.52;14.15;;;;;;;;;;5104219;28;20036;-54
2021/03/19 01:31:37;;;;;;;16.70;13.45;;;;;;;;;;5102956;28;20031;-51
2021/03/19 01:34:02;;;;;;;19.85;15.23;;;;;;;;;;5096826;27;20035;-52
2021/03/19 01:36:28;;;;;;;15.80;13.70;;;;;;;;;;5103171;27;20063;-51
2021/03/19 01:38:55;;;;;;;16.92;13.85;;;;;;;;;;5102053;27;20106;-50
2021/03/19 01:41:20;;;;;;;17.92;15.68;;;;;;;;;;5088069;28;20061;-51
2021/03/19 01:43:52;;;;;;;15.90;14.20;;;;;;;;;;5102413;28;20024;-53
2021/03/19 01:46:55;;;;;;;20.17;15.98;;;;;;;;;;5102900;28;20039;-52
2021/03/19 01:49:58;;;;;;;20.27;15.80;;;;;;;;;;5102185;28;20043;-53
2021/03/19 01:53:01;;;;;;;18.13;14.77;;;;;;;;;;5101665;28;20031;-52
2021/03/19 01:56:05;;;;;;;17.80;15.68;;;;;;;;;;5103252;27;20024;-50
2021/03/19 01:59:07;;;;;;;17.88;15.38;;;;;;;;;;5100657;27;20442;-49
2021/03/19 02:02:11;;;;;;;18.92;16.90;;;;;;;;;;5102421;28;20031;-52
2021/03/19 02:05:14;;;;;;;25.65;18.63;;;;;;;;;;5091730;28;20031;-50
2021/03/19 02:08:17;;;;;;;24.40;21.65;;;;;;;;;;5098373;28;20032;-51
2021/03/19 02:11:19;;;;;;;22.38;19.90;;;;;;;;;;5100340;28;20063;-51
2021/03/19 02:14:22;;;;;;;29.90;22.25;;;;;;;;;;5110199;28;20047;-54
2021/03/19 02:17:25;;;;;;;31.92;22.42;;;;;;;;;;5101259;28;20024;-51
2021/03/19 02:20:28;;;;;;;25.30;21.55;;;;;;;;;;5092462;28;20027;-52
2021/03/19 02:23:31;;;;;;;28.88;22.95;;;;;;;;;;5104796;28;20131;-54
2021/03/19 02:26:34;;;;;;;27.23;21.70;;;;;;;;;;5109577;28;20035;-52
2021/03/19 02:29:37;;;;;;;30.25;23.20;;;;;;;;;;5098709;28;20074;-54
2021/03/19 02:32:07;;;;;;;25.83;21.60;;;;;;;;;;5099787;28;20378;-53
2021/03/19 02:34:57;;;;;;;32.58;22.80;;;;;;;;;;5100292;28;20035;-52
2021/03/19 02:37:26;;;;;;;26.25;22.85;;;;;;;;;;5102395;28;20036;-50
2021/03/19 02:39:53;;;;;;;30.40;23.33;;;;;;;;;;5104925;28;20055;-50
2021/03/19 02:42:24;;;;;;;24.40;21.83;;;;;;;;;;5099864;28;20345;-53
2021/03/19 02:44:49;;;;;;;23.35;20.77;;;;;;;;;;5104840;27;20036;-52
2021/03/19 02:47:15;;;;;;;25.08;21.42;;;;;;;;;;5107785;27;20362;-52
2021/03/19 02:49:41;;;;;;;24.80;22.10;;;;;;;;;;5097993;28;20050;-53
2021/03/19 02:52:06;;;;;;;26.75;23.88;;;;;;;;;;5107846;27;20445;-54
2021/03/19 02:54:32;;;;;;;27.92;24.92;;;;;;;;;;5107268;27;20064;-52
2021/03/19 02:56:57;;;;;;;26.33;23.45;;;;;;;;;;5101817;27;20035;-53
2021/03/19 02:59:23;;;;;;;31.90;23.98;;;;;;;;;;5111250;27;20046;-51
2021/03/19 03:01:49;;;;;;;27.27;24.25;;;;;;;;;;5112659;27;20457;-52
2021/03/19 03:04:16;;;;;;;28.25;24.65;;;;;;;;;;5091685;28;20038;-51
2021/03/19 03:06:46;;;;;;;28.60;25.45;;;;;;;;;;5105813;27;20020;-51
2021/03/19 03:09:15;;;;;;;33.13;27.58;;;;;;;;;;5102880;27;20595;-51
2021/03/19 03:11:42;;;;;;;27.88;24.88;;;;;;;;;;5102945;27;20127;-53
2021/03/19 03:14:11;;;;;;;30.02;25.95;;;;;;;;;;5103675;27;20036;-54
2021/03/19 03:16:37;;;;;;;30.17;26.83;;;;;;;;;;5106777;27;20019;-52
2021/03/19 03:19:05;;;;;;;36.03;27.85;;;;;;;;;;5103200;27;20032;-51
2021/03/19 03:21:31;;;;;;;33.35;26.70;;;;;;;;;;5102530;28;20028;-51
2021/03/19 03:23:56;;;;;;;34.78;28.35;;;;;;;;;;5106192;27;20092;-53
2021/03/19 03:26:22;;;;;;;35.35;30.65;;;;;;;;;;5107500;27;20122;-51
2021/03/19 03:28:48;;;;;;;34.10;30.35;;;;;;;;;;5099743;27;20110;-49
2021/03/19 03:31:13;;;;;;;33.85;29.70;;;;;;;;;;5109228;27;20525;-52
2021/03/19 03:33:38;;;;;;;33.90;27.90;;;;;;;;;;5105849;27;20035;-52
2021/03/19 03:36:05;;;;;;;33.45;27.02;;;;;;;;;;5102831;27;20542;-49
2021/03/19 03:38:30;;;;;;;32.72;27.73;;;;;;;;;;5103922;27;20290;-52
2021/03/19 03:41:05;;;;;;;32.47;28.92;;;;;;;;;;5107318;27;20077;-54
2021/03/19 03:43:32;;;;;;;33.50;28.02;;;;;;;;;;5098433;27;20039;-52
2021/03/19 03:45:57;;;;;;;34.22;29.02;;;;;;;;;;5105546;28;20032;-51
2021/03/19 03:48:26;;;;;;;36.00;28.75;;;;;;;;;;5105091;27;20042;-52
2021/03/19 03:50:52;;;;;;;31.08;27.25;;;;;;;;;;5109336;27;20475;-51
2021/03/19 03:53:18;;;;;;;33.08;29.20;;;;;;;;;;5100272;27;20023;-53
2021/03/19 03:55:44;;;;;;;38.03;30.45;;;;;;;;;;5101364;28;20024;-56
2021/03/19 03:58:11;;;;;;;36.65;30.80;;;;;;;;;;5106185;27;20036;-53
2021/03/19 04:00:37;;;;;;;34.15;29.90;;;;;;;;;;5105143;28;20098;-51
2021/03/19 04:03:04;;;;;;;38.90;29.17;;;;;;;;;;5104315;27;20229;-49
2021/03/19 04:05:34;;;;;;;41.22;30.65;;;;;;;;;;5106131;27;20042;-52
2021/03/19 04:07:59;;;;;;;41.55;30.42;;;;;;;;;;5104902;27;20035;-51
2021/03/19 04:10:25;;;;;;;32.60;28.42;;;;;;;;;;5101805;28;20105;-54
2021/03/19 04:12:51;;;;;;;34.80;29.33;;;;;;;;;;5098514;27;20391;-52
2021/03/19 04:15:18;;;;;;;38.42;28.48;;;;;;;;;;5101658;27;20093;-52
2021/03/19 04:17:46;;;;;;;34.15;27.23;;;;;;;;;;5104354;27;20470;-52
2021/03/19 04:20:13;;;;;;;39.55;28.27;;;;;;;;;;5106360;27;20043;-54
2021/03/19 04:22:39;;;;;;;37.60;29.00;;;;;;;;;;5106497;27;20039;-52
2021/03/19 04:25:05;;;;;;;38.63;29.77;;;;;;;;;;5100211;28;20457;-51
2021/03/19 04:27:35;;;;;;;38.00;29.30;;;;;;;;;;5101125;28;20039;-50
2021/03/19 04:30:00;;;;;;;36.08;27.80;;;;;;;;;;5106076;27;20039;-50
2021/03/19 04:32:26;;;;;;;39.78;28.00;;;;;;;;;;5104726;27;20524;-54
2021/03/19 04:34:52;;;;;;;36.50;28.25;;;;;;;;;;5102907;28;20024;-53
2021/03/19 04:37:18;;;;;;;32.78;27.98;;;;;;;;;;5101769;27;20118;-49
2021/03/19 04:39:47;;;;;;;33.42;28.00;;;;;;;;;;5104604;27;20028;-52
2021/03/19 04:42:13;;;;;;;34.33;28.58;;;;;;;;;;5105937;27;20097;-55
2021/03/19 04:44:44;;;;;;;38.17;28.35;;;;;;;;;;5103469;27;20032;-53
2021/03/19 04:47:10;;;;;;;35.90;27.75;;;;;;;;;;5105560;27;20509;-51
2021/03/19 04:49:36;;;;;;;32.90;26.38;;;;;;;;;;5104109;27;20027;-53
2021/03/19 04:52:02;;;;;;;37.25;26.25;;;;;;;;;;5101094;28;20028;-52
2021/03/19 04:54:28;;;;;;;30.52;25.95;;;;;;;;;;5100745;28;20040;-53
2021/03/19 04:56:54;;;;;;;32.55;24.13;;;;;;;;;;5095271;28;20035;-53
2021/03/19 04:59:20;;;;;;;31.48;22.75;;;;;;;;;;5103937;27;20031;-53
2021/03/19 05:01:54;;;;;;;33.70;24.35;;;;;;;;;;5103248;27;20106;-50
2021/03/19 05:04:21;;;;;;;25.98;21.45;;;;;;;;;;5100267;27;20469;-49
2021/03/19 05:06:52;;;;;;;32.03;21.52;;;;;;;;;;5102680;27;20047;-53
2021/03/19 05:09:18;;;;;;;27.33;21.85;;;;;;;;;;5103995;27;20110;-54
2021/03/19 05:11:44;;;;;;;30.13;21.30;;;;;;;;;;5104141;27;20110;-52
2021/03/19 05:14:09;;;;;;;31.13;21.67;;;;;;;;;;5100256;28;20028;-52
2021/03/19 05:16:35;;;;;;;29.70;20.95;;;;;;;;;;5100701;27;20538;-53
2021/03/19 05:19:00;;;;;;;32.40;21.85;;;;;;;;;;5104644;27;20114;-53
2021/03/19 05:21:26;;;;;;;27.92;19.67;;;;;;;;;;5105179;27;20056;-51
2021/03/19 05:23:51;;;;;;;29.05;20.63;;;;;;;;;;5101991;27;20019;-48
2021/03/19 05:26:16;;;;;;;26.80;20.27;;;;;;;;;;5098373;27;20040;-49
2021/03/19 05:28:42;;;;;;;28.85;20.50;;;;;;;;;;5102634;27;20537;-51
2021/03/19 05:31:08;;;;;;;30.23;21.67;;;;;;;;;;5104892;27;20034;-50
2021/03/19 05:33:49;;;;;;;29.65;20.92;;;;;;;;;;5104216;28;20016;-53
2021/03/19 05:36:16;;;;;;;30.23;20.27;;;;;;;;;;5100578;27;20472;-54
2021/03/19 05:38:42;;;;;;;29.08;20.98;;;;;;;;;;5102858;28;20032;-53
2021/03/19 05:41:09;;;;;;;34.28;19.30;;;;;;;;;;5103874;27;20127;-52
2021/03/19 05:43:54;;;;;;;29.88;21.23;;;;;;;;;;5106945;28;20024;-52
2021/03/19 05:46:29;;;;;;;24.70;20.00;;;;;;;;;;5106880;27;20086;-53
2021/03/19 05:49:10;;;;;;;27.88;20.13;;;;;;;;;;5103338;27;20027;-50
2021/03/19 05:51:43;;;;;;;34.33;21.37;;;;;;;;;;5101946;27;20439;-52
2021/03/19 05:54:09;;;;;;;29.65;20.73;;;;;;;;;;5101960;27;20032;-54
2021/03/19 05:56:36;;;;;;;24.58;19.73;;;;;;;;;;5111844;27;20031;-53
2021/03/19 05:59:02;;;;;;;30.13;19.92;;;;;;;;;;5100037;28;20036;-49
2021/03/19 06:01:27;;;;;;;26.38;19.05;;;;;;;;;;5090322;28;20023;-50
2021/03/19 06:03:59;;;;;;;29.63;20.52;;;;;;;;;;5095806;27;20039;-54
2021/03/19 06:06:44;;;;;;;27.25;20.70;;;;;;;;;;5103236;28;20035;-50
2021/03/19 06:09:21;;;;;;;26.48;19.48;;;;;;;;;;5106747;28;20047;-53
2021/03/19 06:11:53;;;;;;;33.92;21.08;;;;;;;;;;5109909;28;20092;-51
2021/03/19 06:14:19;;;;;;;30.90;20.67;;;;;;;;;;5106025;28;20439;-51
2021/03/19 06:16:49;;;;;;;31.30;19.60;;;;;;;;;;5110857;28;20023;-53
2021/03/19 06:19:32;;;;;;;29.13;20.42;;;;;;;;;;5101176;28;20036;-52
2021/03/19 06:22:06;;;;;;;25.38;19.40;;;;;;;;;;5103352;28;20028;-53
2021/03/19 06:24:32;;;;;;;25.92;18.92;;;;;;;;;;5103566;28;20035;-50
2021/03/19 06:27:21;;;;;;;26.58;20.48;;;;;;;;;;5102218;28;20032;-50
2021/03/19 06:29:51;;;;;;;26.23;19.20;;;;;;;;;;5105759;28;20469;-49
2021/03/19 06:32:19;;;;;;;25.70;19.50;;;;;;;;;;5104010;28;20031;-52
2021/03/19 06:34:51;;;;;;;24.42;18.77;;;;;;;;;;5104005;28;20028;-54
2021/03/19 06:37:23;;;;;;;;;;;;;;;;;;5103045;28;20783;-48
2021/03/19 06:39:52;;;;;;;26.98;18.92;;;;;;;;;;5092963;28;19919;-48
2021/03/19 06:42:18;;;;;;;29.27;19.95;;;;;;;;;;5104339;28;20106;-49
2021/03/19 06:45:01;;;;;;;22.88;19.52;;;;;;;;;;5102987;28;20539;-48
2021/03/19 06:47:55;;;;;;;27.08;18.63;;;;;;;;;;5100292;28;20028;-47
2021/03/19 06:50:23;;;;;;;25.48;17.52;;;;;;;;;;5098123;28;20024;-48
2021/03/19 06:52:51;;;;;;;24.00;18.27;;;;;;;;;;5094335;28;20350;-50
2021/03/19 06:55:35;;;;;;;25.73;18.42;;;;;;;;;;5103749;28;20043;-49
2021/03/19 06:58:01;;;;;;;27.60;18.30;;;;;;;;;;5111466;28;20040;-50
2021/03/19 07:00:48;;;;;;;27.30;19.88;;;;;;;;;;5104689;28;20047;-50
2021/03/19 07:03:30;;;;;;;26.35;19.48;;;;;;;;;;5101066;28;20528;-51
2021/03/19 07:06:15;;;;;;;30.95;20.48;;;;;;;;;;5106203;28;20047;-50
2021/03/19 07:08:48;;;;;;;22.70;18.73;;;;;;;;;;5106395;28;20054;-51
2021/03/19 07:11:23;;;;;;;27.50;19.33;;;;;;;;;;5107636;28;20460;-51
2021/03/19 07:14:06;;;;;;;26.30;18.92;;;;;;;;;;5111047;28;20032;-52
2021/03/19 07:16:41;;;;;;;24.85;18.73;;;;;;;;;;5100778;28;20024;-52
2021/03/19 07:19:15;;;;;;;25.25;18.58;;;;;;;;;;5097618;28;20036;-52
2021/03/19 07:22:11;;;;;;;24.95;19.70;;;;;;;;;;5095613;28;20366;-52
2021/03/19 07:24:57;;;;;;;25.40;19.45;;;;;;;;;;5095371;28;20027;-51
2021/03/19 07:27:35;;;;;;;26.67;18.98;;;;;;;;;;5089887;28;20055;-53
2021/03/19 07:30:41;;;;;;;22.48;17.75;;;;;;;;;;5101801;28;20456;-52
2021/03/19 07:33:42;;;;;;;25.67;18.38;;;;;;;;;;5082586;27;20051;-51
2021/03/19 07:36:37;;;;;;;22.00;17.38;;;;;;;;;;5099428;27;20168;-53
2021/03/19 07:39:15;;;;;;;23.05;17.60;;;;;;;;;;5106704;27;20059;-56
2021/03/19 07:42:18;;;;;;;24.75;17.67;;;;;;;;;;5101686;27;20028;-52
2021/03/19 07:45:27;;;;;;;21.90;17.65;;;;;;;;;;5105650;27;20028;-53
2021/03/19 07:48:22;;;;;;;22.63;16.80;;;;;;;;;;5107596;27;20058;-50
2021/03/19 07:51:08;;;;;;;22.42;16.27;;;;;;;;;;5103368;27;20076;-51
2021/03/19 07:53:50;;;;;;;21.15;16.02;;;;;;;;;;5103315;27;20559;-53
2021/03/19 07:56:43;;;;;;;18.95;14.27;;;;;;;;;;5102871;27;20054;-55
2021/03/19 07:59:39;;;;;;;19.60;14.68;;;;;;;;;;5097587;27;20040;-54
2021/03/19 08:02:26;;;;;;;18.58;12.88;;;;;;;;;;5047358;27;20047;-55
2021/03/19 08:05:07;;;;;;;16.20;12.00;;;;;;;;;;5090512;28;20425;-55
2021/03/19 08:07:44;;;;;;;17.92;11.73;;;;;;;;;;5097291;27;20051;-53
2021/03/19 08:10:50;;;;;;;16.05;11.50;;;;;;;;;;5104095;27;20063;-53
2021/03/19 08:13:15;;;;;;;13.02;9.98;;;;;;;;;;5063841;28;20043;-53
2021/03/19 08:16:00;;;;;;;18.88;10.25;;;;;;;;;;5104008;27;20027;-54
2021/03/19 08:18:48;;;;;;;14.73;10.93;;;;;;;;;;5101988;27;20074;-53
2021/03/19 08:21:32;;;;;;;13.57;9.77;;;;;;;;;;5099788;27;20058;-53
2021/03/19 08:24:29;;;;;;;20.80;11.55;;;;;;;;;;5100935;27;20418;-55
2021/03/19 08:27:13;;;;;;;14.23;10.27;;;;;;;;;;5105695;27;20495;-54
2021/03/19 08:30:16;;;;;;;15.48;10.23;;;;;;;;;;5096740;27;20040;-54
2021/03/19 08:33:11;;;;;;;13.63;10.73;;;;;;;;;;5102183;27;20097;-56
2021/03/19 08:36:04;;;;;;;15.23;11.23;;;;;;;;;;5086064;27;20040;-54
2021/03/19 08:38:42;;;;;;;16.02;11.10;;;;;;;;;;5105852;27;20039;-50
2021/03/19 08:41:14;;;;;;;14.07;11.02;;;;;;;;;;5106529;27;20096;-53
2021/03/19 08:43:47;;;;;;;18.73;12.02;;;;;;;;;;5105223;27;20028;-55
2021/03/19 08:46:23;;;;;;;17.10;13.45;;;;;;;;;;5096822;28;20028;-55
2021/03/19 08:48:59;;;;;;;20.48;13.70;;;;;;;;;;5102624;27;20046;-50
2021/03/19 08:51:28;;;;;;;18.48;13.05;;;;;;;;;;5106921;27;20031;-53
2021/03/19 08:54:17;;;;;;;19.70;13.77;;;;;;;;;;5101642;27;20066;-53
2021/03/19 08:56:46;;;;;;;17.23;12.98;;;;;;;;;;5108314;27;20051;-49
2021/03/19 08:59:33;;;;;;;19.27;13.38;;;;;;;;;;5099438;27;20106;-51
2021/03/19 09:02:01;;;;;;;19.45;13.55;;;;;;;;;;5107229;27;20446;-50
2021/03/19 09:04:57;;;;;;;15.88;11.40;;;;;;;;;;5101136;27;20074;-52
2021/03/19 09:07:26;;;;;;;13.68;10.35;;;;;;;;;;5096182;27;20457;-50
2021/03/19 09:09:53;;;;;;;13.05;10.10;;;;;;;;;;5099867;27;20051;-55
2021/03/19 09:12:31;;;;;;;14.50;10.20;;;;;;;;;;5099211;28;20051;-50
2021/03/19 09:15:19;;;;;;;14.85;10.82;;;;;;;;;;5103602;27;20031;-53
2021/03/19 09:17:51;;;;;;;18.70;11.02;;;;;;;;;;5081328;28;20074;-53
2021/03/19 09:20:34;;;;;;;17.70;10.32;;;;;;;;;;5100340;27;20035;-51
2021/03/19 09:23:08;;;;;;;15.73;9.95;;;;;;;;;;5100726;27;20057;-55
2021/03/19 09:25:47;;;;;;;16.10;12.20;;;;;;;;;;5099379;28;20685;-52
2021/03/19 09:28:27;;;;;;;16.52;11.48;;;;;;;;;;5084160;27;20079;-55
2021/03/19 09:31:30;;;;;;;17.13;11.65;;;;;;;;;;5105438;27;20028;-52
2021/03/19 09:34:00;;;;;;;12.82;10.57;;;;;;;;;;5095367;28;20592;-54
2021/03/19 09:37:03;;;;;;;17.52;13.20;;;;;;;;;;5106730;27;20071;-55
2021/03/19 09:39:47;;;;;;;20.23;13.35;;;;;;;;;;5103867;27;20028;-51
2021/03/19 09:42:40;;;;;;;17.00;12.88;;;;;;;;;;5099293;27;20031;-51
2021/03/19 09:45:18;;;;;;;18.60;11.73;;;;;;;;;;5095581;27;20151;-51
2021/03/19 09:47:54;;;;;;;15.20;12.43;;;;;;;;;;5103814;28;20069;-51
2021/03/19 09:50:24;;;;;;;16.00;12.30;;;;;;;;;;5084557;28;20106;-53
2021/03/19 09:53:07;;;;;;;16.95;15.15;;;;;;;;;;5097167;27;20580;-52
2021/03/19 09:55:41;;;;;;;16.33;12.95;;;;;;;;;;5098779;28;20036;-54
2021/03/19 09:58:43;;;;;;;16.48;12.07;;;;;;;;;;5107271;27;20039;-50
2021/03/19 10:01:14;;;;;;;15.70;12.05;;;;;;;;;;5096201;28;20043;-53
2021/03/19 10:03:45;;;;;;;16.40;11.57;;;;;;;;;;5097230;28;20024;-53
2021/03/19 10:06:19;;;;;;;14.95;11.88;;;;;;;;;;5100405;28;20043;-51
2021/03/19 10:08:44;;;;;;;17.25;12.13;;;;;;;;;;5093468;28;20040;-53
2021/03/19 10:11:14;;;;;;;15.50;11.77;;;;;;;;;;5104175;27;20128;-52
2021/03/19 10:13:39;;;;;;;16.60;11.93;;;;;;;;;;5106950;28;20032;-54
2021/03/19 10:16:06;;;;;;;16.05;11.63;;;;;;;;;;5106986;28;20098;-53
2021/03/19 10:18:43;;;;;;;16.58;11.90;;;;;;;;;;5101098;28;20016;-51
2021/03/19 10:21:11;;;;;;;16.60;12.20;;;;;;;;;;5099822;28;20097;-51
2021/03/19 10:23:45;;;;;;;17.08;12.13;;;;;;;;;;5100188;28;20028;-54
2021/03/19 10:26:33;;;;;;;13.80;10.48;;;;;;;;;;5095864;28;20043;-49
2021/03/19 10:29:06;;;;;;;18.90;10.88;;;;;;;;;;5096615;28;20381;-53
2021/03/19 10:31:37;;;;;;;18.02;10.98;;;;;;;;;;5103546;28;20034;-52
2021/03/19 10:34:09;;;;;;;14.90;10.73;;;;;;;;;;5105573;28;20063;-51
2021/03/19 10:37:06;;;;;;;12.45;9.50;;;;;;;;;;5085509;28;20031;-55
2021/03/19 10:39:47;;;;;;;12.60;9.77;;;;;;;;;;5095132;28;20040;-53
2021/03/19 10:42:51;;;;;;;15.52;9.25;;;;;;;;;;5104637;28;20035;-52
2021/03/19 10:45:23;;;;;;;17.95;10.10;;;;;;;;;;5103773;28;20134;-54
2021/03/19 10:48:07;;;;;;;14.95;9.93;;;;;;;;;;5103874;28;20047;-51
2021/03/19 10:50:37;;;;;;;20.45;11.00;;;;;;;;;;5105692;28;22402;-55
2021/03/19 10:53:02;;;;;;;16.58;10.80;;;;;;;;;;5082386;28;20364;-54
2021/03/19 10:55:34;;;;;;;14.90;9.90;;;;;;;;;;5099804;28;20032;-50
2021/03/19 10:58:22;;;;;;;13.77;10.55;;;;;;;;;;5102598;28;20657;-53
2021/03/19 11:00:51;;;;;;;11.38;9.70;;;;;;;;;;5099687;28;20356;-50
2021/03/19 11:03:36;;;;;;;14.57;8.45;;;;;;;;;;5096359;28;20035;-55
2021/03/19 11:06:05;;;;;;;11.65;8.90;;;;;;;;;;5102111;27;20151;-53
2021/03/19 11:08:30;;;;;;;12.93;8.43;;;;;;;;;;5098437;27;20032;-51
2021/03/19 11:10:57;;;;;;;14.20;11.25;;;;;;;;;;5102061;28;20038;-52
2021/03/19 11:13:22;;;;;;;14.85;8.93;;;;;;;;;;5101909;28;20994;-52
2021/03/19 11:15:54;;;;;;;12.05;8.63;;;;;;;;;;5099659;27;20035;-54
2021/03/19 11:18:19;;;;;;;16.08;9.15;;;;;;;;;;5103030;27;20039;-52
2021/03/19 11:21:08;;;;;;;13.05;8.68;;;;;;;;;;5092659;28;20692;-53
2021/03/19 11:23:40;;;;;;;11.95;8.55;;;;;;;;;;5093247;27;20617;-48
2021/03/19 11:26:28;;;;;;;11.30;8.15;;;;;;;;;;5102587;27;20035;-53
2021/03/19 11:29:12;;;;;;;15.02;8.68;;;;;;;;;;5099313;28;20039;-54
2021/03/19 11:32:06;;;;;;;13.02;8.00;;;;;;;;;;5105759;27;20570;-54
2021/03/19 11:34:34;;;;;;;11.55;7.82;;;;;;;;;;5099548;28;20469;-50
2021/03/19 11:37:02;;;;;;;12.07;8.00;;;;;;;;;;5102978;27;20027;-53
2021/03/19 11:39:49;;;;;;;9.40;7.32;;;;;;;;;;5103114;27;20036;-52
2021/03/19 11:42:16;;;;;;;11.52;8.30;;;;;;;;;;5101925;27;20032;-53
2021/03/19 11:44:42;;;;;;;10.02;7.13;;;;;;;;;;5100953;27;20036;-51
2021/03/19 11:47:25;;;;;;;10.18;6.43;;;;;;;;;;5100520;27;20038;-54
2021/03/19 11:49:56;;;;;;;8.25;6.03;;;;;;;;;;5105383;27;20032;-54
2021/03/19 11:52:21;;;;;;;10.15;5.78;;;;;;;;;;5097887;27;20573;-54
2021/03/19 11:54:47;;;;;;;8.45;5.70;;;;;;;;;;5102650;27;20070;-54
2021/03/19 11:57:13;;;;;;;9.18;5.35;;;;;;;;;;5096960;27;20096;-51
2021/03/19 11:59:39;;;;;;;8.32;5.90;;;;;;;;;;5095699;27;20048;-51
2021/03/19 12:02:18;;;;;;;8.90;5.75;;;;;;;;;;5106581;27;20944;-53
2021/03/19 12:04:44;;;;;;;8.65;5.53;;;;;;;;;;5106939;27;20028;-55
2021/03/19 12:07:09;;;;;;;10.25;6.28;;;;;;;;;;5101453;27;20064;-50
2021/03/19 12:09:37;;;;;;;8.38;5.50;;;;;;;;;;5105306;27;20038;-53
2021/03/19 12:12:03;;;;;;;10.43;5.90;;;;;;;;;;5106365;27;20037;-52
2021/03/19 12:14:28;;;;;;;10.18;7.38;;;;;;;;;;5105886;27;20108;-53
2021/03/19 12:16:54;;;;;;;24.05;7.53;;;;;;;;;;5095577;27;20131;-51
2021/03/19 12:19:19;;;;;;;10.43;7.15;;;;;;;;;;5100835;28;20440;-53
2021/03/19 12:21:46;;;;;;;9.07;6.18;;;;;;;;;;5099511;27;20048;-53
2021/03/19 12:24:11;;;;;;;8.95;6.13;;;;;;;;;;5101381;27;20032;-54
2021/03/19 12:26:36;;;;;;;9.70;7.13;;;;;;;;;;5097551;28;20031;-55
2021/03/19 12:29:03;;;;;;;11.07;7.03;;;;;;;;;;5101311;27;20035;-52
2021/03/19 12:31:28;;;;;;;9.75;6.43;;;;;;;;;;5098119;27;20138;-54
2021/03/19 12:33:54;;;;;;;11.25;7.00;;;;;;;;;;5099885;28;20126;-52
2021/03/19 12:36:19;;;;;;;9.25;5.82;;;;;;;;;;5097030;27;20078;-54
2021/03/19 12:38:44;;;;;;;8.00;5.80;;;;;;;;;;5100712;27;20058;-54
2021/03/19 12:41:10;;;;;;;10.60;6.05;;;;;;;;;;5092939;27;20035;-55
2021/03/19 12:43:36;;;;;;;12.25;5.40;;;;;;;;;;5098727;27;20042;-54
2021/03/19 12:46:02;;;;;;;8.27;5.50;;;;;;;;;;5100242;27;20039;-54
2021/03/19 12:48:28;;;;;;;7.72;5.03;;;;;;;;;;5098076;27;20043;-53
2021/03/19 12:50:53;;;;;;;7.85;5.72;;;;;;;;;;5106020;27;20787;-54
2021/03/19 12:53:22;;;;;;;7.40;4.85;;;;;;;;;;5100417;27;20145;-54
2021/03/19 12:55:48;;;;;;;7.60;5.78;;;;;;;;;;5106736;27;20336;-55
2021/03/19 12:58:14;;;;;;;6.82;4.90;;;;;;;;;;5099846;27;20039;-55
2021/03/19 13:00:40;;;;;;;7.28;4.85;;;;;;;;;;5101885;28;20118;-55
2021/03/19 13:03:07;;;;;;;7.05;4.60;;;;;;;;;;5106384;27;20524;-52
2021/03/19 13:05:33;;;;;;;6.72;4.97;;;;;;;;;;5098274;27;20032;-51
2021/03/19 13:07:59;;;;;;;8.60;6.05;;;;;;;;;;5102488;27;20028;-50
2021/03/19 13:10:28;;;;;;;9.18;5.65;;;;;;;;;;5097082;27;20042;-53
2021/03/19 13:12:54;;;;;;;7.03;5.28;;;;;;;;;;5096777;27;20046;-51
2021/03/19 13:15:23;;;;;;;6.68;5.00;;;;;;;;;;5095782;27;20036;-52
2021/03/19 13:17:48;;;;;;;5.63;4.13;;;;;;;;;;5099456;27;20105;-53
2021/03/19 13:20:15;;;;;;;16.73;4.82;;;;;;;;;;5106136;28;20448;-55
2021/03/19 13:22:41;;;;;;;9.85;4.88;;;;;;;;;;5097664;28;20099;-52
2021/03/19 13:25:10;;;;;;;7.07;3.83;;;;;;;;;;5095581;28;20060;-52
2021/03/19 13:27:36;;;;;;;7.68;4.75;;;;;;;;;;5102253;27;20396;-53
2021/03/19 13:30:01;;;;;;;6.40;3.90;;;;;;;;;;5089460;27;20027;-52
2021/03/19 13:32:27;;;;;;;6.15;3.63;;;;;;;;;;5108051;28;20035;-52
2021/03/19 13:34:52;;;;;;;5.47;3.50;;;;;;;;;;5104112;27;20020;-52
2021/03/19 13:37:18;;;;;;;6.68;3.70;;;;;;;;;;5101967;27;20059;-51
2021/03/19 13:39:43;;;;;;;6.63;3.35;;;;;;;;;;5103425;27;20475;-51
2021/03/19 13:42:09;;;;;;;8.05;3.53;;;;;;;;;;5100997;27;20054;-50
2021/03/19 13:44:35;;;;;;;5.90;3.40;;;;;;;;;;5100873;27;20031;-53
2021/03/19 13:47:01;;;;;;;6.47;3.60;;;;;;;;;;5101425;27;20024;-51
2021/03/19 13:49:31;;;;;;;7.45;3.75;;;;;;;;;;5096875;28;20116;-52
2021/03/19 13:51:56;;;;;;;5.90;3.88;;;;;;;;;;5097094;28;20065;-51
2021/03/19 13:54:22;;;;;;;5.28;2.95;;;;;;;;;;5104776;27;20031;-54
2021/03/19 13:56:47;;;;;;;9.90;3.40;;;;;;;;;;5104040;27;20046;-54
2021/03/19 13:59:13;;;;;;;5.63;3.15;;;;;;;;;;5103425;28;20043;-53
2021/03/19 14:01:38;;;;;;;6.93;2.70;;;;;;;;;;5090277;28;20039;-52
2021/03/19 14:04:08;;;;;;;4.45;3.03;;;;;;;;;;5099105;28;20130;-51
2021/03/19 14:06:37;;;;;;;4.80;2.58;;;;;;;;;;5108078;27;20613;-51
2021/03/19 14:09:04;;;;;;;5.43;3.20;;;;;;;;;;5106756;28;20038;-52
2021/03/19 14:11:29;;;;;;;6.07;3.40;;;;;;;;;;5104157;28;20501;-51
2021/03/19 14:13:55;;;;;;;6.70;4.60;;;;;;;;;;5107110;27;20051;-50
2021/03/19 14:16:20;;;;;;;10.02;5.30;;;;;;;;;;5107108;28;20038;-52
2021/03/19 14:18:45;;;;;;;7.90;5.07;;;;;;;;;;5107760;28;20043;-51
2021/03/19 14:21:11;;;;;;;7.85;5.00;;;;;;;;;;5099194;28;20036;-52
2021/03/19 14:23:37;;;;;;;8.38;4.82;;;;;;;;;;5107556;28;20432;-51
2021/03/19 14:26:04;;;;;;;5.97;4.13;;;;;;;;;;5106965;28;20028;-51
2021/03/19 14:28:36;;;;;;;7.88;4.25;;;;;;;;;;5107114;28;20039;-50
2021/03/19 14:31:02;;;;;;;7.15;4.85;;;;;;;;;;5107638;28;20036;-53
2021/03/19 14:33:28;;;;;;;7.45;4.68;;;;;;;;;;5092996;28;20723;-52
2021/03/19 14:35:54;;;;;;;6.38;3.72;;;;;;;;;;5109764;28;20023;-52
2021/03/19 14:38:22;;;;;;;6.47;3.95;;;;;;;;;;5106831;28;20735;-51
2021/03/19 14:40:50;;;;;;;7.13;4.07;;;;;;;;;;5108882;27;20031;-52
2021/03/19 14:43:16;;;;;;;7.60;4.10;;;;;;;;;;5097590;28;20480;-54
2021/03/19 14:45:41;;;;;;;6.22;3.92;;;;;;;;;;5095103;28;20034;-52
2021/03/19 14:48:09;;;;;;;5.65;3.47;;;;;;;;;;5086174;27;20035;-51
2021/03/19 14:50:39;;;;;;;6.88;3.63;;;;;;;;;;5111788;27;20472;-54
2021/03/19 14:53:07;;;;;;;6.05;3.45;;;;;;;;;;5104283;27;20527;-53
2021/03/19 14:55:32;;;;;;;5.00;2.58;;;;;;;;;;5103560;27;20142;-53
2021/03/19 14:57:58;;;;;;;14.20;2.80;;;;;;;;;;5109123;27;20421;-53